Time;durP1;ratioP1;P1;durP2;ratioP2;P2;SDS_P1;SDS_P2;PMS_P1;PMS_P2;Temp;Humidity;BMP_temperature;BMP_pressure;BME280_temperature;BME280_humidity;BME280_pressure;Samples;Min_cycle;Max_cycle;Signal;HPM_P1;HPM_P2
2022/07/19 00:01:03;;;;;;;0.40;0.40;;;18.60;55.20;;;18.99;40.68;95624.97;5014365;28;20219;-76
2022/07/19 00:03:30;;;;;;;0.50;0.50;;;18.50;55.30;;;18.92;41.30;95625.09;5016515;28;20307;-78
2022/07/19 00:05:57;;;;;;;0.45;0.45;;;18.60;55.50;;;18.96;40.96;95623.59;5010995;28;20301;-77
2022/07/19 00:08:25;;;;;;;0.50;0.50;;;18.50;55.20;;;18.94;40.47;95620.34;5014528;28;20193;-78
2022/07/19 00:10:52;;;;;;;0.60;0.60;;;18.50;55.10;;;18.94;40.52;95620.34;5004758;28;20236;-77
2022/07/19 00:13:23;;;;;;;0.50;0.50;;;18.40;55.10;;;18.95;40.61;95624.63;5000912;28;20296;-77
2022/07/19 00:15:52;;;;;;;0.50;0.50;;;18.50;55.30;;;18.95;40.84;95613.19;5033149;28;20556;-77
2022/07/19 00:18:19;;;;;;;0.50;0.50;;;18.40;55.10;;;18.95;40.78;95623.81;5013621;28;20224;-77
2022/07/19 00:20:46;;;;;;;0.50;0.50;;;18.40;55.10;;;18.97;40.76;95617.22;5024826;28;20224;-77
2022/07/19 00:23:13;;;;;;;0.50;0.50;;;18.40;55.40;;;18.97;41.31;95621.72;5016153;28;20223;-77
2022/07/19 00:25:40;;;;;;;0.40;0.40;;;18.50;55.80;;;18.96;41.51;95614.81;5016541;28;20220;-78
2022/07/19 00:28:08;;;;;;;0.43;0.43;;;18.50;56.00;;;18.94;41.08;95620.34;5032607;28;20207;-78
2022/07/19 00:30:35;;;;;;;0.47;0.47;;;18.50;56.10;;;18.92;41.74;95624.25;5014057;28;20302;-77
2022/07/19 00:33:04;;;;;;;0.50;0.50;;;18.50;56.40;;;18.85;41.83;95627.78;5011758;28;20699;-77
2022/07/19 00:35:31;;;;;;;0.50;0.50;;;18.50;56.30;;;18.75;42.23;95621.41;5004596;28;20776;-77
2022/07/19 00:38:08;;;;;;;0.47;0.47;;;18.50;56.50;;;18.72;41.79;95623.50;5012831;28;20259;-77
2022/07/19 00:40:37;;;;;;;0.43;0.43;;;18.40;56.40;;;18.70;41.83;95614.09;5013565;28;20310;-77
2022/07/19 00:43:05;;;;;;;0.50;0.50;;;18.30;55.90;;;18.70;41.60;95620.25;5032455;28;20629;-78
2022/07/19 00:45:32;;;;;;;0.40;0.40;;;18.40;55.90;;;18.72;41.07;95614.69;5032545;28;20222;-77
2022/07/19 00:47:59;;;;;;;0.50;0.50;;;18.30;55.90;;;18.71;41.50;95608.56;5014771;28;20544;-77
2022/07/19 00:50:27;;;;;;;0.50;0.50;;;18.20;56.10;;;18.71;41.51;95611.22;5014030;28;20243;-77
2022/07/19 00:53:00;;;;;;;0.50;0.50;;;18.20;56.10;;;18.71;41.63;95610.41;5029144;28;20195;-77
2022/07/19 00:55:31;;;;;;;0.60;0.60;;;18.20;56.70;;;18.71;41.71;95618.38;4996241;28;20224;-77
2022/07/19 00:57:59;;;;;;;0.50;0.50;;;18.20;56.40;;;18.71;41.76;95613.06;5013009;28;20210;-76
2022/07/19 01:00:32;;;;;;;0.50;0.50;;;18.30;56.60;;;18.68;41.50;95618.84;5010661;28;20243;-77
2022/07/19 01:03:00;;;;;;;0.40;0.40;;;18.20;56.50;;;18.64;41.31;95604.38;5031356;28;20269;-77
2022/07/19 01:05:28;;;;;;;0.50;0.50;;;18.20;56.30;;;18.64;41.35;95609.69;5031662;28;20582;-77
2022/07/19 01:07:55;;;;;;;0.47;0.47;;;18.10;56.30;;;18.59;41.39;95607.72;5027396;28;20223;-77
2022/07/19 01:10:22;;;;;;;0.50;0.50;;;18.20;56.20;;;18.58;41.56;95618.56;5016070;28;20231;-77
2022/07/19 01:12:50;;;;;;;0.47;0.47;;;18.10;56.90;;;18.53;41.74;95614.75;4998178;28;20227;-78
2022/07/19 01:15:26;;;;;;;0.47;0.47;;;18.10;57.00;;;18.48;41.68;95614.59;5015316;28;20210;-77
2022/07/19 01:17:53;;;;;;;0.45;0.45;;;18.00;57.00;;;18.42;41.88;95617.34;5015071;28;20724;-77
2022/07/19 01:20:23;;;;;;;0.50;0.50;;;18.00;56.70;;;18.37;42.38;95613.50;5028293;28;20220;-78
2022/07/19 01:22:56;;;;;;;0.57;0.57;;;17.90;57.10;;;18.34;41.95;95616.59;5016022;28;20237;-77
2022/07/19 01:25:27;;;;;;;0.50;0.50;;;17.90;56.70;;;18.31;41.90;95610.94;4999106;28;20216;-77
2022/07/19 01:27:55;;;;;;;0.50;0.50;;;17.80;56.50;;;18.29;42.21;95616.47;5028666;28;20200;-77
2022/07/19 01:30:25;;;;;;;0.50;0.50;;;17.80;56.60;;;18.29;42.08;95607.72;5015076;28;20588;-77
2022/07/19 01:32:53;;;;;;;0.40;0.40;;;17.80;57.00;;;18.34;42.01;95613.94;4999014;28;20212;-77
2022/07/19 01:35:21;;;;;;;0.50;0.50;;;17.90;56.80;;;18.35;42.15;95614.78;5015122;28;20219;-78
2022/07/19 01:37:49;;;;;;;0.50;0.50;;;17.80;56.80;;;18.39;41.47;95615.94;5017534;28;20196;-77
2022/07/19 01:40:17;;;;;;;0.40;0.40;;;17.80;58.40;;;18.40;41.84;95609.59;5008768;28;20211;-77
2022/07/19 01:42:47;;;;;;;0.57;0.57;;;17.80;57.30;;;18.38;41.77;95609.84;5014760;28;20220;-77
2022/07/19 01:45:15;;;;;;;0.40;0.40;;;17.90;57.30;;;18.36;41.89;95606.56;5012900;28;20204;-77
2022/07/19 01:47:43;;;;;;;0.50;0.50;;;17.80;56.90;;;18.35;41.96;95602.28;5015037;28;20208;-78
2022/07/19 01:50:14;;;;;;;0.50;0.50;;;17.80;57.00;;;18.33;41.94;95601.69;5025973;28;20282;-77
2022/07/19 01:52:42;;;;;;;0.50;0.50;;;17.80;57.10;;;18.31;41.91;95609.09;5013875;28;20199;-77
2022/07/19 01:55:17;;;;;;;0.50;0.50;;;17.80;57.20;;;18.28;41.83;95600.78;5011608;28;20202;-77
2022/07/19 01:57:44;;;;;;;0.50;0.50;;;17.90;57.30;;;18.25;42.27;95602.03;5019204;28;20200;-77
2022/07/19 02:00:13;;;;;;;0.50;0.50;;;17.80;57.40;;;18.21;42.45;95600.84;5011436;28;20203;-76
2022/07/19 02:02:42;;;;;;;0.50;0.50;;;17.70;57.30;;;18.19;42.58;95600.25;5046116;28;20211;-77
2022/07/19 02:05:09;;;;;;;0.50;0.50;;;17.70;57.50;;;18.15;42.39;95599.06;5010911;28;20227;-77
2022/07/19 02:07:39;;;;;;;0.50;0.50;;;17.70;57.70;;;18.16;42.49;95606.84;5012432;28;20199;-77
2022/07/19 02:10:08;;;;;;;0.50;0.50;;;17.80;57.90;;;18.15;42.83;95601.72;5020638;28;20199;-77
2022/07/19 02:12:35;;;;;;;0.47;0.47;;;17.60;57.90;;;18.11;42.52;95603.22;5029975;28;20200;-77
2022/07/19 02:15:03;;;;;;;0.43;0.43;;;17.70;59.20;;;18.10;42.63;95601.59;5013030;28;20206;-77
2022/07/19 02:17:30;;;;;;;0.50;0.50;;;17.60;57.90;;;18.10;42.62;95594.41;5014695;28;20203;-77
2022/07/19 02:19:58;;;;;;;0.50;0.50;;;17.60;58.20;;;18.11;42.97;95595.25;4995864;28;20196;-77
2022/07/19 02:22:25;;;;;;;0.50;0.50;;;17.60;58.30;;;18.10;42.87;95590.97;5012478;28;20224;-77
2022/07/19 02:24:52;;;;;;;0.50;0.50;;;17.60;58.40;;;18.06;43.19;95593.25;5010302;28;20197;-77
2022/07/19 02:27:19;;;;;;;0.50;0.50;;;17.60;58.30;;;18.03;43.17;95594.50;5022988;28;20216;-77
2022/07/19 02:29:46;;;;;;;0.57;0.57;;;17.60;58.30;;;18.01;42.94;95601.88;5016785;28;20208;-76
2022/07/19 02:32:15;;;;;;;0.50;0.50;;;17.60;58.40;;;17.99;43.83;95601.31;5015974;28;20319;-78
2022/07/19 02:34:42;;;;;;;0.50;0.50;;;17.60;58.90;;;17.94;44.57;95598.44;5018562;28;20200;-77
2022/07/19 02:37:10;;;;;;;0.50;0.50;;;17.60;59.20;;;17.96;44.26;95595.63;5018460;28;20574;-77
2022/07/19 02:39:37;;;;;;;0.50;0.50;;;17.50;59.20;;;17.95;44.09;95592.16;5019421;28;20208;-77
2022/07/19 02:42:04;;;;;;;0.50;0.50;;;17.50;59.20;;;17.92;43.80;95590.72;5001290;28;20727;-77
2022/07/19 02:44:32;;;;;;;0.60;0.60;;;17.60;59.40;;;17.91;44.06;95597.06;5034741;28;20196;-78
2022/07/19 02:46:59;;;;;;;0.50;0.50;;;17.50;59.10;;;17.90;43.67;95603.38;5017677;28;20215;-77
2022/07/19 02:49:27;;;;;;;0.47;0.47;;;17.50;59.10;;;17.82;43.97;95589.59;5034182;28;20184;-78
2022/07/19 02:51:54;;;;;;;0.50;0.50;;;17.50;59.20;;;17.85;43.79;95594.50;5000219;28;20246;-77
2022/07/19 02:54:21;;;;;;;0.60;0.60;;;17.40;59.10;;;17.78;43.92;95594.53;5013257;28;20205;-78
2022/07/19 02:56:49;;;;;;;0.50;0.50;;;17.40;59.20;;;17.79;44.15;95603.34;5004784;28;20223;-78
2022/07/19 02:59:16;;;;;;;0.50;0.50;;;17.40;59.40;;;17.76;44.29;95599.28;5018276;28;20218;-78
2022/07/19 03:01:43;;;;;;;0.45;0.45;;;17.40;59.40;;;17.71;44.22;95602.59;5022651;28;20211;-78
2022/07/19 03:04:10;;;;;;;0.70;0.70;;;17.30;59.40;;;17.72;43.97;95600.72;5001460;28;20298;-78
2022/07/19 03:06:37;;;;;;;0.50;0.50;;;17.40;59.60;;;17.71;44.04;95607.06;5018073;28;20223;-77
2022/07/19 03:09:04;;;;;;;0.40;0.40;;;17.30;59.70;;;17.64;44.54;95603.66;5034349;28;20242;-77
2022/07/19 03:11:32;;;;;;;0.45;0.45;;;17.30;59.70;;;17.59;44.08;95607.00;5018621;28;20220;-78
2022/07/19 03:13:59;;;;;;;0.50;0.50;;;17.20;59.50;;;17.52;44.29;95604.38;5011853;28;20658;-78
2022/07/19 03:16:26;;;;;;;0.50;0.50;;;17.20;59.60;;;17.49;44.37;95610.16;5024947;28;20300;-78
2022/07/19 03:18:53;;;;;;;0.50;0.50;;;17.10;59.70;;;17.40;44.63;95603.47;5020212;28;20228;-77
2022/07/19 03:21:20;;;;;;;0.50;0.50;;;17.10;59.70;;;17.40;44.63;95612.25;5014824;28;20230;-78
2022/07/19 03:23:48;;;;;;;0.63;0.63;;;17.10;59.80;;;17.40;44.73;95614.88;5027080;28;20397;-78
2022/07/19 03:26:15;;;;;;;0.50;0.50;;;17.00;59.60;;;17.39;45.11;95615.13;4993026;28;20207;-77
2022/07/19 03:28:42;;;;;;;0.45;0.45;;;17.00;60.00;;;17.33;45.18;95603.53;5013647;28;20204;-78
2022/07/19 03:31:10;;;;;;;0.52;0.52;;;17.00;60.00;;;17.38;45.33;95618.78;5010615;28;20205;-77
2022/07/19 03:33:37;;;;;;;0.43;0.43;;;17.00;60.30;;;17.38;45.57;95616.97;5005606;28;20216;-78
2022/07/19 03:36:04;;;;;;;0.40;0.40;;;17.10;60.40;;;17.40;45.28;95622.03;5007790;28;20694;-78
2022/07/19 03:38:32;;;;;;;0.50;0.50;;;17.00;60.30;;;17.41;45.50;95616.53;5011447;28;20200;-78
2022/07/19 03:40:59;;;;;;;0.40;0.40;;;17.00;60.50;;;17.40;45.36;95609.59;5004749;28;20592;-78
2022/07/19 03:43:26;;;;;;;0.50;0.50;;;17.10;60.60;;;17.42;45.69;95612.03;5023269;28;20212;-77
2022/07/19 03:45:53;;;;;;;0.50;0.50;;;17.00;60.70;;;17.41;46.37;95610.41;5024975;28;20740;-78
2022/07/19 03:48:21;;;;;;;0.50;0.50;;;17.10;61.00;;;17.45;46.79;95611.59;5004027;28;20255;-77
2022/07/19 03:50:49;;;;;;;0.50;0.50;;;17.10;61.30;;;17.47;47.02;95608.72;5015249;28;20230;-77
2022/07/19 03:53:16;;;;;;;0.50;0.50;;;17.10;61.20;;;17.50;46.38;95603.78;4996468;28;20204;-78
2022/07/19 03:55:43;;;;;;;0.50;0.50;;;17.10;61.20;;;17.55;46.05;95609.28;5012302;28;20231;-78
2022/07/19 03:58:10;;;;;;;0.50;0.50;;;17.20;61.30;;;17.58;45.61;95605.38;5011413;28;20204;-77
2022/07/19 04:00:38;;;;;;;0.50;0.50;;;17.20;61.30;;;17.58;45.93;95610.69;5004638;28;20244;-77
2022/07/19 04:03:05;;;;;;;0.40;0.40;;;17.20;61.30;;;17.61;45.93;95610.22;5010454;28;20227;-78
2022/07/19 04:05:32;;;;;;;0.40;0.40;;;17.30;61.40;;;17.62;46.10;95606.53;5010553;28;20243;-78
2022/07/19 04:07:59;;;;;;;0.50;0.50;;;17.30;61.40;;;17.63;46.07;95610.03;5012857;28;20290;-78
2022/07/19 04:10:27;;;;;;;0.60;0.60;;;17.30;61.30;;;17.66;45.91;95613.03;5013222;28;20612;-78
2022/07/19 04:12:54;;;;;;;0.50;0.50;;;17.30;61.40;;;17.71;45.93;95620.34;5030858;28;20698;-78
2022/07/19 04:15:21;;;;;;;0.40;0.40;;;17.40;61.40;;;17.73;46.40;95618.28;5012038;28;20215;-78
2022/07/19 04:17:48;;;;;;;0.50;0.50;;;17.30;61.40;;;17.77;46.49;95627.41;5011034;28;20252;-78
2022/07/19 04:20:15;;;;;;;0.40;0.40;;;17.40;61.40;;;17.80;46.73;95621.69;5000795;28;20197;-78
2022/07/19 04:22:42;;;;;;;0.50;0.50;;;17.50;61.50;;;17.86;47.08;95630.63;4978875;28;20227;-78
2022/07/19 04:25:10;;;;;;;0.40;0.40;;;17.50;61.90;;;17.89;47.19;95630.16;5020462;28;20202;-78
2022/07/19 04:27:37;;;;;;;0.40;0.40;;;17.50;61.60;;;17.93;46.95;95626.03;5030791;28;20189;-78
2022/07/19 04:30:05;;;;;;;0.40;0.40;;;17.60;61.70;;;18.01;47.02;95625.78;5012043;28;20196;-77
2022/07/19 04:32:33;;;;;;;0.50;0.50;;;17.60;63.10;;;18.10;46.92;95628.13;4982227;28;20193;-78
2022/07/19 04:35:02;;;;;;;0.40;0.40;;;17.70;61.90;;;18.12;47.20;95623.44;4994634;28;20193;-78
2022/07/19 04:37:29;;;;;;;0.50;0.50;;;17.80;62.10;;;18.26;47.06;95632.03;5013492;28;20674;-78
2022/07/19 04:39:56;;;;;;;0.50;0.50;;;17.80;61.90;;;18.32;47.09;95621.34;5009911;28;20208;-77
2022/07/19 04:42:23;;;;;;;0.50;0.50;;;17.90;62.30;;;18.40;47.38;95625.53;4994577;28;20703;-79
2022/07/19 04:44:51;;;;;;;0.40;0.40;;;18.00;62.50;;;18.49;47.51;95623.38;5010976;28;20222;-78
2022/07/19 04:47:18;;;;;;;0.47;0.47;;;18.10;62.70;;;18.56;47.92;95611.63;5000222;28;20303;-78
2022/07/19 04:49:45;;;;;;;0.50;0.50;;;18.30;63.10;;;18.68;47.80;95621.50;5031570;28;20678;-78
2022/07/19 04:52:12;;;;;;;0.40;0.40;;;18.30;63.20;;;18.76;48.19;95615.06;5015307;28;20234;-78
2022/07/19 04:54:39;;;;;;;0.40;0.40;;;18.30;63.10;;;18.83;47.73;95605.94;5029405;28;20200;-78
2022/07/19 04:57:06;;;;;;;0.40;0.40;;;18.50;62.90;;;18.92;48.26;95606.47;4995935;28;20336;-78
2022/07/19 04:59:33;;;;;;;0.40;0.40;;;18.50;62.80;;;19.03;48.06;95604.88;4995537;28;20204;-78
2022/07/19 05:02:00;;;;;;;0.40;0.40;;;18.60;62.80;;;19.13;47.69;95604.34;5012366;28;20216;-78
2022/07/19 05:04:28;;;;;;;0.40;0.40;;;18.80;62.90;;;19.25;48.07;95607.81;4995714;28;20687;-78
2022/07/19 05:06:58;;;;;;;0.50;0.50;;;18.90;62.60;;;19.34;47.58;95606.41;5022484;28;20228;-78
2022/07/19 05:09:27;;;;;;;0.50;0.50;;;19.00;62.70;;;19.47;47.66;95609.88;5030051;28;20188;-78
2022/07/19 05:11:55;;;;;;;0.40;0.40;;;19.00;62.70;;;19.58;47.91;95606.44;5031762;28;20596;-78
2022/07/19 05:14:23;;;;;;;0.40;0.40;;;19.10;62.80;;;19.68;47.86;95611.97;5029460;28;20214;-78
2022/07/19 05:16:50;;;;;;;0.43;0.43;;;19.30;62.90;;;19.81;47.50;95607.47;4995491;28;20780;-78
2022/07/19 05:19:18;;;;;;;0.40;0.40;;;19.40;63.10;;;19.91;47.88;95609.56;4995758;28;20200;-78
2022/07/19 05:21:45;;;;;;;0.40;0.40;;;19.50;63.10;;;20.03;47.29;95613.03;5012030;28;20228;-78
2022/07/19 05:24:13;;;;;;;0.40;0.40;;;19.60;62.90;;;20.12;47.39;95602.84;4995434;28;20251;-78
2022/07/19 05:26:40;;;;;;;0.43;0.43;;;19.70;62.70;;;20.23;47.10;95603.84;4994916;28;20212;-78
2022/07/19 05:29:07;;;;;;;0.40;0.40;;;19.80;62.70;;;20.34;46.97;95602.22;5015224;28;20239;-78
2022/07/19 05:31:35;;;;;;;0.35;0.35;;;19.90;62.60;;;20.43;46.67;95598.09;5015407;28;20686;-78
2022/07/19 05:34:02;;;;;;;0.40;0.40;;;20.10;62.80;;;20.57;47.55;95603.97;5030744;28;20199;-78
2022/07/19 05:36:29;;;;;;;0.40;0.40;;;20.20;62.70;;;20.68;46.72;95594.28;5012677;28;20223;-78
2022/07/19 05:38:56;;;;;;;0.40;0.40;;;20.20;62.30;;;20.75;46.32;95595.00;5028111;28;20279;-77
2022/07/19 05:41:24;;;;;;;0.50;0.50;;;20.40;62.20;;;20.86;46.67;95590.66;5011761;28;20224;-78
2022/07/19 05:43:52;;;;;;;0.40;0.40;;;20.50;62.10;;;20.94;46.41;95588.38;5008227;28;20220;-78
2022/07/19 05:46:20;;;;;;;0.40;0.40;;;20.60;62.20;;;21.07;46.92;95592.63;5010654;28;20213;-79
2022/07/19 05:48:48;;;;;;;0.40;0.40;;;20.70;62.20;;;21.18;46.37;95598.09;4995476;28;20200;-78
2022/07/19 05:51:16;;;;;;;0.40;0.40;;;20.80;61.80;;;21.28;46.32;95595.63;5011835;28;20214;-78
2022/07/19 05:53:44;;;;;;;0.40;0.40;;;20.90;61.80;;;21.38;46.19;95595.75;4996540;28;20244;-78
2022/07/19 05:56:11;;;;;;;0.40;0.40;;;21.00;61.80;;;21.47;46.59;95598.88;5010028;28;20221;-78
2022/07/19 05:58:38;;;;;;;0.40;0.40;;;21.10;61.70;;;21.57;46.39;95606.25;5027828;28;20195;-78
2022/07/19 06:01:18;;;;;;;0.40;0.40;;;21.20;61.80;;;21.63;46.06;95596.44;5010623;28;20252;-78
2022/07/19 06:03:51;;;;;;;0.35;0.35;;;21.30;61.70;;;21.74;46.12;95601.69;4994862;28;20632;-78
2022/07/19 06:06:26;;;;;;;0.30;0.30;;;21.40;61.70;;;21.86;46.22;95603.44;5011725;28;20778;-78
2022/07/19 06:08:54;;;;;;;0.30;0.30;;;21.50;61.60;;;21.94;45.59;95604.88;4995322;28;20195;-78
2022/07/19 06:11:22;;;;;;;0.40;0.40;;;21.60;61.50;;;22.05;46.06;95609.31;4995397;28;20258;-78
2022/07/19 06:13:51;;;;;;;0.40;0.40;;;21.70;61.50;;;22.15;46.36;95613.97;5004466;28;20252;-78
2022/07/19 06:16:18;;;;;;;0.40;0.40;;;21.80;61.80;;;22.24;46.09;95609.81;5011243;28;20218;-78
2022/07/19 06:18:47;;;;;;;0.40;0.40;;;21.90;61.50;;;22.34;45.71;95604.56;5011254;28;20654;-78
2022/07/19 06:21:18;;;;;;;0.30;0.30;;;22.00;62.30;;;22.47;45.21;95610.63;5006166;28;20870;-78
2022/07/19 06:23:47;;;;;;;0.30;0.30;;;22.10;61.10;;;22.54;45.41;95608.56;5021096;28;20722;-78
2022/07/19 06:26:15;;;;;;;0.50;0.50;;;22.20;61.20;;;22.64;45.72;95608.69;5029700;28;20215;-78
2022/07/19 06:28:42;;;;;;;0.38;0.38;;;22.30;61.00;;;22.74;45.50;95608.00;5011533;28;20765;-78
2022/07/19 06:31:14;;;;;;;0.30;0.30;;;22.40;61.10;;;22.85;45.43;95611.56;5011352;28;20298;-78
2022/07/19 06:33:44;;;;;;;0.30;0.30;;;22.50;61.30;;;22.94;45.35;95612.72;5011287;28;20663;-78
2022/07/19 06:36:12;;;;;;;0.38;0.38;;;22.60;61.10;;;23.06;45.10;95611.75;5011584;28;20560;-78
2022/07/19 06:38:41;;;;;;;0.40;0.40;;;22.70;61.10;;;23.17;45.30;95603.59;5011161;28;20205;-78
2022/07/19 06:41:10;;;;;;;0.40;0.40;;;22.80;61.00;;;23.28;44.61;95609.06;4996422;28;20781;-79
2022/07/19 06:43:39;;;;;;;0.50;0.50;;;22.90;60.70;;;23.39;44.57;95604.56;5009349;28;20228;-78
2022/07/19 06:46:07;;;;;;;0.30;0.30;;;23.00;60.60;;;23.49;44.31;95607.34;4997470;28;20679;-79
2022/07/19 06:48:35;;;;;;;0.40;0.40;;;23.10;60.40;;;23.58;44.20;95605.81;4994706;28;20212;-79
2022/07/19 06:51:03;;;;;;;0.30;0.30;;;23.20;60.30;;;23.68;44.53;95610.41;5009042;28;20220;-79
2022/07/19 06:53:31;;;;;;;0.40;0.40;;;23.30;60.30;;;23.77;44.19;95616.88;5030863;28;20655;-79
2022/07/19 06:55:58;;;;;;;0.30;0.30;;;23.40;60.30;;;23.85;44.23;95604.88;4995078;28;20236;-78
2022/07/19 06:58:25;;;;;;;0.30;0.30;;;23.50;60.40;;;23.95;44.22;95604.19;4994037;28;20232;-79
2022/07/19 07:00:52;;;;;;;0.40;0.40;;;23.60;60.20;;;24.05;43.77;95614.16;5011162;28;20291;-79
2022/07/19 07:03:20;;;;;;;0.35;0.35;;;23.70;60.10;;;24.14;43.88;95613.38;4994609;28;20539;-79
2022/07/19 07:05:47;;;;;;;0.40;0.40;;;23.80;60.00;;;24.24;43.88;95615.31;4994765;28;20222;-78
2022/07/19 07:08:14;;;;;;;0.35;0.35;;;23.90;59.60;;;24.36;43.20;95615.06;4994427;28;20229;-78
2022/07/19 07:10:42;;;;;;;0.38;0.38;;;24.00;59.20;;;24.46;42.74;95617.81;5016040;28;20587;-79
2022/07/19 07:13:09;;;;;;;0.45;0.45;;;24.10;58.50;;;24.58;42.25;95624.81;5024720;28;20247;-79
2022/07/19 07:15:38;;;;;;;0.30;0.30;;;24.20;57.80;;;24.69;42.07;95617.63;5008282;28;20682;-78
2022/07/19 07:18:05;;;;;;;0.60;0.60;;;24.30;57.50;;;24.78;41.63;95622.22;5014387;28;20685;-79
2022/07/19 07:20:34;;;;;;;0.28;0.28;;;24.40;58.70;;;24.90;41.63;95623.84;5014402;28;20213;-78
2022/07/19 07:23:03;;;;;;;0.40;0.40;;;24.50;57.20;;;25.00;41.25;95623.06;5017408;28;20246;-79
2022/07/19 07:25:30;;;;;;;0.30;0.30;;;24.60;56.70;;;25.09;41.19;95619.56;5017845;28;20216;-78
2022/07/19 07:27:58;;;;;;;0.30;0.30;;;24.70;56.80;;;25.18;40.83;95611.81;5028828;28;20218;-79
2022/07/19 07:30:25;;;;;;;0.38;0.38;;;24.80;56.80;;;25.29;41.06;95617.19;4997152;28;20307;-78
2022/07/19 07:32:52;;;;;;;0.50;0.50;;;24.90;56.70;;;25.38;40.64;95621.78;5014587;28;20358;-79
2022/07/19 07:35:20;;;;;;;0.50;0.50;;;25.00;56.50;;;25.47;40.53;95616.66;5016188;28;20229;-78
2022/07/19 07:37:48;;;;;;;0.28;0.28;;;25.10;56.50;;;25.56;40.59;95616.94;5033866;28;20208;-79
2022/07/19 07:40:15;;;;;;;0.30;0.30;;;25.20;56.40;;;25.67;40.11;95618.56;5015056;28;20236;-79
2022/07/19 07:42:44;;;;;;;0.30;0.30;;;25.30;56.00;;;25.77;40.49;95614.22;5012478;28;20328;-79
2022/07/19 07:45:11;;;;;;;0.30;0.30;;;25.40;56.00;;;25.85;39.94;95616.38;5013889;28;20247;-79
2022/07/19 07:47:38;;;;;;;0.55;0.55;;;25.50;55.60;;;25.95;39.61;95619.03;4997745;28;20671;-76
2022/07/19 07:50:07;;;;;;;0.28;0.28;;;25.60;55.10;;;26.03;39.29;95614.97;5017767;28;20206;-79
2022/07/19 07:52:35;;;;;;;0.20;0.20;;;25.60;55.10;;;26.13;39.60;95616.88;5010667;28;20205;-80
2022/07/19 07:55:03;;;;;;;0.30;0.30;;;25.70;55.00;;;26.20;39.57;95617.38;4997244;28;20200;-79
2022/07/19 07:57:50;;;;;;;0.20;0.20;;;25.80;54.90;;;26.32;39.34;95615.19;5013794;28;20661;-79
2022/07/19 08:00:18;;;;;;;0.25;0.25;;;25.90;54.40;;;26.43;39.41;95617.84;5012711;28;20718;-79
2022/07/19 08:02:48;;;;;;;0.30;0.30;;;26.00;54.60;;;26.53;38.30;95618.59;5013566;28;20838;-79
2022/07/19 08:05:16;;;;;;;0.40;0.40;;;26.10;54.10;;;26.63;38.88;95615.03;5004055;28;20332;-79
2022/07/19 08:07:43;;;;;;;0.30;0.30;;;26.20;54.00;;;26.71;38.64;95613.66;5002264;28;20197;-79
2022/07/19 08:10:18;;;;;;;0.30;0.30;;;26.30;53.60;;;26.79;37.69;95604.22;4998011;28;20250;-78
2022/07/19 08:12:45;;;;;;;0.38;0.38;;;26.40;53.10;;;26.81;38.07;95597.47;5008890;28;20564;-79
2022/07/19 08:15:12;;;;;;;0.30;0.30;;;26.50;53.20;;;26.93;37.88;95605.22;5012952;28;20613;-78
2022/07/19 08:17:39;;;;;;;0.30;0.30;;;26.50;53.00;;;27.03;37.79;95601.66;5013190;28;20201;-79
2022/07/19 08:20:08;;;;;;;0.30;0.30;;;26.60;53.00;;;27.13;37.69;95603.47;5001418;28;20214;-78
2022/07/19 08:22:35;;;;;;;0.30;0.30;;;26.70;53.10;;;27.23;38.10;95600.69;5021350;28;20231;-79
2022/07/19 08:25:03;;;;;;;0.30;0.30;;;26.80;52.90;;;27.33;37.43;95599.81;5021025;28;20588;-78
2022/07/19 08:27:30;;;;;;;0.30;0.30;;;26.90;52.40;;;27.44;36.77;95600.56;5005845;28;20201;-78
2022/07/19 08:29:57;;;;;;;0.30;0.30;;;27.00;52.10;;;27.54;36.69;95586.19;5024745;28;20192;-78
2022/07/19 08:32:30;;;;;;;0.30;0.30;;;27.10;51.40;;;27.63;36.64;95584.50;5024368;28;20202;-78
2022/07/19 08:34:57;;;;;;;0.30;0.30;;;27.20;51.10;;;27.72;36.07;95588.19;5009046;28;20208;-78
2022/07/19 08:37:24;;;;;;;0.38;0.38;;;27.30;51.20;;;27.80;36.07;95592.94;5028248;28;20325;-78
2022/07/19 08:39:51;;;;;;;0.20;0.20;;;27.30;50.90;;;27.89;36.32;95586.94;5011377;28;20191;-78
2022/07/19 08:42:22;;;;;;;0.30;0.30;;;27.40;51.00;;;27.98;35.44;95589.78;5011307;28;20218;-78
2022/07/19 08:44:53;;;;;;;0.30;0.30;;;27.50;50.00;;;28.08;35.20;95581.63;5011538;28;20232;-78
2022/07/19 08:47:21;;;;;;;0.30;0.30;;;27.60;49.80;;;28.17;34.93;95577.19;4986434;28;20230;-78
2022/07/19 08:49:49;;;;;;;0.32;0.32;;;27.70;49.70;;;28.26;35.27;95588.97;5011294;28;20203;-78
2022/07/19 08:52:18;;;;;;;0.30;0.30;;;27.80;50.00;;;28.33;34.81;95583.25;5011362;28;20234;-78
2022/07/19 08:54:45;;;;;;;0.20;0.20;;;27.90;49.00;;;28.42;33.98;95584.19;4994734;28;20235;-78
2022/07/19 08:59:58;;;;;;;0.30;0.30;;;28.00;47.90;;;28.58;33.41;95581.28;5021782;28;20229;-78
2022/07/19 09:02:26;;;;;;;0.30;0.30;;;28.10;47.80;;;28.65;33.96;95586.31;5011913;28;20198;-79
2022/07/19 09:05:07;;;;;;;0.30;0.30;;;28.20;48.50;;;28.75;33.46;95583.53;5012500;28;20306;-78
2022/07/19 09:07:39;;;;;;;0.30;0.30;;;28.30;47.60;;;28.82;33.38;95575.03;5020048;28;20214;-78
2022/07/19 09:10:22;;;;;;;0.20;0.20;;;28.40;47.60;;;28.86;33.21;95567.97;5004990;28;20227;-77
2022/07/19 09:13:11;;;;;;;0.30;0.30;;;28.40;47.80;;;28.93;33.31;95571.13;5024325;28;20197;-78
2022/07/19 09:15:53;;;;;;;0.25;0.25;;;28.50;47.10;;;29.01;33.43;95580.44;5026934;28;20309;-78
2022/07/19 09:18:32;;;;;;;0.38;0.38;;;28.60;47.80;;;29.08;32.72;95570.88;5013620;28;20196;-79
2022/07/19 09:21:05;;;;;;;0.30;0.30;;;28.70;46.80;;;29.16;33.03;95571.28;5003951;28;20313;-78
2022/07/19 09:23:33;;;;;;;0.30;0.30;;;28.70;46.60;;;29.24;32.65;95573.31;4986811;28;20284;-79
2022/07/19 09:26:04;;;;;;;0.30;0.30;;;28.80;46.00;;;29.33;32.35;95568.06;5009239;28;20219;-78
2022/07/19 09:28:36;;;;;;;0.40;0.40;;;28.80;46.20;;;29.41;32.28;95564.72;5005753;28;20195;-78
2022/07/19 09:31:04;;;;;;;0.30;0.30;;;28.90;46.10;;;29.47;32.49;95555.41;4997126;28;20640;-78
2022/07/19 09:33:33;;;;;;;0.30;0.30;;;29.00;46.20;;;29.56;31.56;95563.63;5009493;28;20216;-78
2022/07/19 09:36:13;;;;;;;0.30;0.30;;;29.10;45.90;;;29.64;31.64;95570.28;5019200;28;20299;-77
2022/07/19 09:38:43;;;;;;;0.25;0.25;;;29.10;45.80;;;29.72;31.76;95569.56;5019992;28;20194;-77
2022/07/19 09:41:19;;;;;;;0.30;0.30;;;29.20;46.30;;;29.78;31.52;95565.66;5001144;28;20271;-77
2022/07/19 09:44:05;;;;;;;0.20;0.20;;;29.30;45.20;;;29.83;31.32;95557.47;5018182;28;20267;-77
2022/07/19 09:46:42;;;;;;;0.20;0.20;;;29.40;45.20;;;29.84;31.59;95553.63;5004564;28;20406;-77
2022/07/19 09:49:17;;;;;;;0.30;0.30;;;29.50;45.30;;;29.91;31.05;95557.91;5000991;28;20277;-78
2022/07/19 09:51:54;;;;;;;0.30;0.30;;;29.50;44.50;;;29.94;30.31;95563.50;5019421;28;20710;-78
2022/07/19 09:54:25;;;;;;;0.30;0.30;;;29.50;43.70;;;29.99;30.43;95560.72;5006115;28;20193;-79
2022/07/19 09:56:54;;;;;;;0.30;0.30;;;29.60;44.30;;;30.05;30.22;95561.41;5000957;28;20629;-78
2022/07/19 09:59:23;;;;;;;0.30;0.30;;;29.60;44.20;;;30.12;31.04;95564.50;5002059;28;20211;-78
2022/07/19 10:01:55;;;;;;;0.30;0.30;;;29.70;44.40;;;30.21;30.86;95561.09;5009411;28;20216;-78
2022/07/19 10:04:26;;;;;;;0.30;0.30;;;29.80;44.30;;;30.27;30.45;95555.28;5009621;28;20213;-78
2022/07/19 10:06:54;;;;;;;0.20;0.20;;;29.80;43.70;;;30.34;30.33;95552.16;5002446;28;20644;-78
2022/07/19 10:09:23;;;;;;;0.30;0.30;;;29.80;43.70;;;30.43;29.93;95549.53;5010650;28;20204;-77
2022/07/19 10:11:56;;;;;;;0.20;0.20;;;29.90;43.70;;;30.49;30.01;95540.19;5009334;28;20213;-78
2022/07/19 10:14:23;;;;;;;0.20;0.20;;;30.00;43.80;;;30.54;30.13;95542.84;5001817;28;20210;-79
2022/07/19 10:16:53;;;;;;;0.20;0.20;;;30.10;43.40;;;30.62;30.29;95544.03;5012268;28;20265;-77
2022/07/19 10:19:30;;;;;;;0.30;0.30;;;30.10;43.80;;;30.70;29.38;95542.50;5010990;28;20274;-79
2022/07/19 10:21:58;;;;;;;0.30;0.30;;;30.20;43.60;;;30.79;29.79;95540.66;5017561;28;20232;-78
2022/07/19 10:24:47;;;;;;;0.20;0.20;;;30.30;43.60;;;30.89;29.29;95550.47;5029256;28;20212;-78
2022/07/19 10:27:24;;;;;;;0.30;0.30;;;30.40;43.50;;;30.99;29.66;95550.22;5025086;28;20225;-79
2022/07/19 10:30:12;;;;;;;0.30;0.30;;;30.40;43.10;;;31.04;29.09;95539.28;5011501;28;20193;-79